createdAt,value
2022-08-29T00:00:45.721Z,15.48
2022-08-29T00:01:45.702Z,15.51
2022-08-29T00:02:45.632Z,15.48
2022-08-29T00:03:45.598Z,15.44
2022-08-29T00:04:45.543Z,15.45
2022-08-29T00:05:46.616Z,15.36
2022-08-29T00:06:45.451Z,15.43
2022-08-29T00:07:45.408Z,15.37
2022-08-29T00:08:45.359Z,15.48
2022-08-29T00:09:45.317Z,15.44
2022-08-29T00:10:45.269Z,15.32
2022-08-29T00:11:46.713Z,15.37
2022-08-29T00:12:45.182Z,15.39
2022-08-29T00:13:45.136Z,15.39
2022-08-29T00:14:45.088Z,15.32
2022-08-29T00:15:45.476Z,15.39
2022-08-29T00:16:45.079Z,15.35
2022-08-29T00:17:44.956Z,15.47
2022-08-29T00:18:44.907Z,15.47
2022-08-29T00:19:44.866Z,15.36
2022-08-29T00:20:44.818Z,15.36
2022-08-29T00:21:44.775Z,15.37
2022-08-29T00:22:44.727Z,15.39
2022-08-29T00:23:44.687Z,15.33
2022-08-29T00:24:44.637Z,15.32
2022-08-29T00:25:44.593Z,15.39
2022-08-29T00:26:44.545Z,15.33
2022-08-29T00:27:44.678Z,15.27
2022-08-29T00:28:44.457Z,15.29
2022-08-29T00:29:44.412Z,15.35
2022-08-29T00:30:44.365Z,15.25
2022-08-29T00:31:44.361Z,15.23
2022-08-29T00:32:44.276Z,15.23
2022-08-29T00:33:44.231Z,15.23
2022-08-29T00:34:44.191Z,15.23
2022-08-29T00:35:44.145Z,15.18
2022-08-29T00:36:49.081Z,15.14
2022-08-29T00:37:44.051Z,15.15
2022-08-29T00:38:44.004Z,15.14
2022-08-29T00:39:43.960Z,15.14
2022-08-29T00:40:45.054Z,15.17
2022-08-29T00:41:43.873Z,15.07
2022-08-29T00:42:43.822Z,14.99
2022-08-29T00:43:43.778Z,15.02
2022-08-29T00:44:43.734Z,15.05
2022-08-29T00:45:43.737Z,14.99
2022-08-29T00:46:43.639Z,14.97
2022-08-29T00:47:43.598Z,15.05
2022-08-29T00:48:43.551Z,15.04
2022-08-29T00:49:43.505Z,14.93
2022-08-29T00:50:43.459Z,15.00
2022-08-29T00:51:43.417Z,14.93
2022-08-29T00:52:43.369Z,14.89
2022-08-29T00:53:43.325Z,14.81
2022-08-29T00:54:43.281Z,14.82
2022-08-29T00:55:43.236Z,14.81
2022-08-29T00:56:43.191Z,14.78
2022-08-29T00:57:43.142Z,14.77
2022-08-29T00:58:43.099Z,14.77
2022-08-29T00:59:43.052Z,14.66
2022-08-29T01:00:43.105Z,14.82
2022-08-29T01:01:43.013Z,14.79
2022-08-29T01:02:42.998Z,14.78
2022-08-29T01:03:43.255Z,14.67
2022-08-29T01:04:42.825Z,14.67
2022-08-29T01:05:42.783Z,14.68
2022-08-29T01:06:42.732Z,14.63
2022-08-29T01:07:42.691Z,14.61
2022-08-29T01:08:42.646Z,14.68
2022-08-29T01:09:42.598Z,14.59
2022-08-29T01:10:42.551Z,14.53
2022-08-29T01:11:42.509Z,14.63
2022-08-29T01:12:42.463Z,14.51
2022-08-29T01:13:42.415Z,14.52
2022-08-29T01:14:42.372Z,14.51
2022-08-29T01:15:42.324Z,14.51
2022-08-29T01:16:42.304Z,14.45
2022-08-29T01:17:42.236Z,14.51
2022-08-29T01:18:42.189Z,14.49
2022-08-29T01:19:42.147Z,14.48
2022-08-29T01:20:42.096Z,14.53
2022-08-29T01:21:42.054Z,14.49
2022-08-29T01:22:42.006Z,14.41
2022-08-29T01:23:42.167Z,14.45
2022-08-29T01:24:41.916Z,14.37
2022-08-29T01:25:41.870Z,14.34
2022-08-29T01:26:41.827Z,14.43
2022-08-29T01:27:41.783Z,14.34
2022-08-29T01:28:41.734Z,14.31
2022-08-29T01:29:41.691Z,14.30
2022-08-29T01:30:41.639Z,14.28
2022-08-29T01:31:56.379Z,14.33
2022-08-29T01:32:41.549Z,14.20
2022-08-29T01:33:41.503Z,14.25
2022-08-29T01:34:41.458Z,14.25
2022-08-29T01:35:41.415Z,14.18
2022-08-29T01:36:41.369Z,14.23
2022-08-29T01:37:41.321Z,14.16
2022-08-29T01:38:41.278Z,14.20
2022-08-29T01:39:41.233Z,14.12
2022-08-29T01:40:41.226Z,14.16
2022-08-29T01:41:41.139Z,14.04
2022-08-29T01:42:41.096Z,14.11
2022-08-29T01:43:41.049Z,14.13
2022-08-29T01:44:41.002Z,14.03
2022-08-29T01:45:40.985Z,13.98
2022-08-29T01:46:40.912Z,14.03
2022-08-29T01:47:40.865Z,14.12
2022-08-29T01:48:40.818Z,14.01
2022-08-29T01:49:41.134Z,13.98
2022-08-29T01:50:40.726Z,14.03
2022-08-29T01:51:40.681Z,13.98
2022-08-29T01:52:40.637Z,13.94
2022-08-29T01:53:40.590Z,13.87
2022-08-29T01:54:40.545Z,13.94
2022-08-29T01:55:40.501Z,13.93
2022-08-29T01:56:40.455Z,13.86
2022-08-29T01:57:40.612Z,13.87
2022-08-29T01:58:40.566Z,13.85
2022-08-29T01:59:40.318Z,13.79
2022-08-29T02:00:40.308Z,13.83
2022-08-29T02:01:40.303Z,13.86
2022-08-29T02:02:40.321Z,13.79
2022-08-29T02:03:40.142Z,13.83
2022-08-29T02:04:40.093Z,13.78
2022-08-29T02:05:40.042Z,13.76
2022-08-29T02:06:39.993Z,13.76
2022-08-29T02:07:39.950Z,13.71
2022-08-29T02:08:39.908Z,13.75
2022-08-29T02:09:39.861Z,13.68
2022-08-29T02:10:39.810Z,13.73
2022-08-29T02:11:39.781Z,13.68
2022-08-29T02:12:39.722Z,13.78
2022-08-29T02:13:39.680Z,13.68
2022-08-29T02:14:39.627Z,13.61
2022-08-29T02:15:39.586Z,13.71
2022-08-29T02:16:39.592Z,13.70
2022-08-29T02:17:39.492Z,13.68
2022-08-29T02:18:39.445Z,13.61
2022-08-29T02:19:39.404Z,13.64
2022-08-29T02:20:39.355Z,13.52
2022-08-29T02:21:39.306Z,13.50
2022-08-29T02:22:39.260Z,13.58
2022-08-29T02:23:39.219Z,13.55
2022-08-29T02:24:39.168Z,13.52
2022-08-29T02:25:39.124Z,13.54
2022-08-29T02:26:39.077Z,13.50
2022-08-29T02:27:39.032Z,13.60
2022-08-29T02:28:38.985Z,13.54
2022-08-29T02:29:38.939Z,13.47
2022-08-29T02:30:38.892Z,13.55
2022-08-29T02:31:38.915Z,13.49
2022-08-29T02:32:38.805Z,13.52
2022-08-29T02:33:38.753Z,13.42
2022-08-29T02:34:38.709Z,13.39
2022-08-29T02:35:42.588Z,13.46
2022-08-29T02:36:38.622Z,13.47
2022-08-29T02:37:38.571Z,13.47
2022-08-29T02:38:38.527Z,13.45
2022-08-29T02:39:38.479Z,13.46
2022-08-29T02:40:38.473Z,13.45
2022-08-29T02:41:38.388Z,13.40
2022-08-29T02:42:38.343Z,13.42
2022-08-29T02:43:38.296Z,13.46
2022-08-29T02:44:38.264Z,13.40
2022-08-29T02:45:38.205Z,13.39
2022-08-29T02:46:38.426Z,13.37
2022-08-29T02:47:38.111Z,13.39
2022-08-29T02:48:38.066Z,13.40
2022-08-29T02:49:38.021Z,13.46
2022-08-29T02:50:37.975Z,13.42
2022-08-29T02:51:37.931Z,13.37
2022-08-29T02:52:37.886Z,13.40
2022-08-29T02:53:37.835Z,13.37
2022-08-29T02:54:37.795Z,13.28
2022-08-29T02:55:37.750Z,13.39
2022-08-29T02:56:37.702Z,13.39
2022-08-29T02:57:37.653Z,13.36
2022-08-29T02:58:37.607Z,13.37
2022-08-29T02:59:37.560Z,13.33
2022-08-29T03:00:37.553Z,13.39
2022-08-29T03:01:37.729Z,13.31
2022-08-29T03:02:37.422Z,13.30
2022-08-29T03:03:37.376Z,13.33
2022-08-29T03:04:37.331Z,13.28
2022-08-29T03:05:37.286Z,13.24
2022-08-29T03:06:37.237Z,13.30
2022-08-29T03:07:37.190Z,13.21
2022-08-29T03:08:37.147Z,13.31
2022-08-29T03:09:37.100Z,13.21
2022-08-29T03:10:37.054Z,13.23
2022-08-29T03:11:37.008Z,13.27
2022-08-29T03:12:36.962Z,13.19
2022-08-29T03:13:36.913Z,13.20
2022-08-29T03:14:36.878Z,13.21
2022-08-29T03:15:36.821Z,13.19
2022-08-29T03:16:36.891Z,13.19
2022-08-29T03:17:36.731Z,13.20
2022-08-29T03:18:36.684Z,13.21
2022-08-29T03:19:37.253Z,13.24
2022-08-29T03:20:36.592Z,13.19
2022-08-29T03:21:36.550Z,13.20
2022-08-29T03:22:36.501Z,13.11
2022-08-29T03:23:36.453Z,13.24
2022-08-29T03:24:36.412Z,13.23
2022-08-29T03:25:36.365Z,13.16
2022-08-29T03:26:36.318Z,13.23
2022-08-29T03:27:36.272Z,13.20
2022-08-29T03:28:36.222Z,13.27
2022-08-29T03:29:36.178Z,13.13
2022-08-29T03:30:36.131Z,13.16
2022-08-29T03:31:36.155Z,13.17
2022-08-29T03:32:36.041Z,13.21
2022-08-29T03:33:36.196Z,13.19
2022-08-29T03:34:35.949Z,13.16
2022-08-29T03:35:35.900Z,13.12
2022-08-29T03:36:35.854Z,13.23
2022-08-29T03:37:35.810Z,13.20
2022-08-29T03:38:35.768Z,13.20
2022-08-29T03:39:35.714Z,13.13
2022-08-29T03:40:35.751Z,13.12
2022-08-29T03:41:35.621Z,13.13
2022-08-29T03:42:35.578Z,13.16
2022-08-29T03:43:35.534Z,13.16
2022-08-29T03:44:35.487Z,13.13
2022-08-29T03:46:18.784Z,13.19
2022-08-29T03:47:18.642Z,13.11
2022-08-29T03:48:18.594Z,13.16
2022-08-29T03:49:18.549Z,13.11
2022-08-29T03:50:18.502Z,13.11
2022-08-29T03:51:18.456Z,13.17
2022-08-29T03:52:18.410Z,13.17
2022-08-29T03:53:18.363Z,13.16
2022-08-29T03:54:18.316Z,13.20
2022-08-29T03:55:18.269Z,13.11
2022-08-29T03:56:19.144Z,13.17
2022-08-29T03:57:18.195Z,13.16
2022-08-29T03:58:18.134Z,13.16
2022-08-29T03:59:18.085Z,13.03
2022-08-29T04:01:18.032Z,13.02
2022-08-29T04:02:17.947Z,13.03
2022-08-29T04:03:17.947Z,13.12
2022-08-29T04:04:17.854Z,13.01
2022-08-29T04:05:17.809Z,13.05
2022-08-29T04:06:17.766Z,13.03
2022-08-29T04:07:17.733Z,13.12
2022-08-29T04:08:17.671Z,13.01
2022-08-29T04:09:17.624Z,13.09
2022-08-29T04:10:17.582Z,13.16
2022-08-29T04:11:17.615Z,13.08
2022-08-29T04:12:17.484Z,13.02
2022-08-29T04:13:17.440Z,13.03
2022-08-29T04:14:17.394Z,13.02
2022-08-29T04:15:17.347Z,13.12
2022-08-29T04:16:17.410Z,13.02
2022-08-29T04:17:17.257Z,13.13
2022-08-29T04:18:21.504Z,13.11
2022-08-29T04:19:17.164Z,13.11
2022-08-29T04:20:19.696Z,13.12
2022-08-29T04:21:17.068Z,13.16
2022-08-29T04:22:17.024Z,13.13
2022-08-29T04:23:16.987Z,13.11
2022-08-29T04:24:16.929Z,13.16
2022-08-29T04:25:16.886Z,13.13
2022-08-29T04:26:35.908Z,13.16
2022-08-29T04:27:16.795Z,13.17
2022-08-29T04:28:16.939Z,13.13
2022-08-29T04:29:16.702Z,13.20
2022-08-29T04:30:16.652Z,13.21
2022-08-29T04:31:16.621Z,13.17
2022-08-29T04:32:16.567Z,13.24
2022-08-29T04:33:22.325Z,13.17
2022-08-29T04:34:16.467Z,13.16
2022-08-29T04:35:16.423Z,13.16
2022-08-29T04:36:16.379Z,13.26
2022-08-29T04:37:16.332Z,13.16
2022-08-29T04:38:16.405Z,13.19
2022-08-29T04:39:16.255Z,13.20
2022-08-29T04:40:16.250Z,13.17
2022-08-29T04:41:16.145Z,13.30
2022-08-29T04:42:20.064Z,13.30
2022-08-29T04:43:16.055Z,13.27
2022-08-29T04:44:16.015Z,13.20
2022-08-29T04:45:15.963Z,13.16
2022-08-29T04:46:23.414Z,13.24
2022-08-29T04:47:15.870Z,13.33
2022-08-29T04:48:16.125Z,13.20
2022-08-29T04:49:15.779Z,13.27
2022-08-29T04:50:15.729Z,13.23
2022-08-29T04:51:15.685Z,13.27
2022-08-29T04:52:15.639Z,13.21
2022-08-29T04:53:15.595Z,13.21
2022-08-29T04:54:15.961Z,13.28
2022-08-29T04:55:20.849Z,13.19
2022-08-29T04:56:15.453Z,13.23
2022-08-29T04:57:15.407Z,13.27
2022-08-29T04:58:15.591Z,13.21
2022-08-29T04:59:15.317Z,13.31
2022-08-29T05:00:15.272Z,13.24
2022-08-29T05:01:15.311Z,13.26
2022-08-29T05:02:15.177Z,13.28
2022-08-29T05:03:15.213Z,13.24
2022-08-29T05:04:15.083Z,13.28
2022-08-29T05:05:15.036Z,13.27
2022-08-29T05:06:14.990Z,13.30
2022-08-29T05:07:14.945Z,13.27
2022-08-29T05:08:15.070Z,13.28
2022-08-29T05:09:14.853Z,13.27
2022-08-29T05:10:14.808Z,13.24
2022-08-29T05:11:14.766Z,13.30
2022-08-29T05:12:14.714Z,13.26
2022-08-29T05:13:14.670Z,13.30
2022-08-29T05:14:14.621Z,13.31
2022-08-29T05:15:14.580Z,13.31
2022-08-29T05:16:14.584Z,13.31
2022-08-29T05:17:14.483Z,13.27
2022-08-29T05:18:14.568Z,13.30
2022-08-29T05:19:16.119Z,13.30
2022-08-29T05:20:14.343Z,13.31
2022-08-29T05:21:14.301Z,13.30
2022-08-29T05:22:14.258Z,13.36
2022-08-29T05:23:14.209Z,13.37
2022-08-29T05:24:14.159Z,13.33
2022-08-29T05:25:17.922Z,13.31
2022-08-29T05:26:14.072Z,13.42
2022-08-29T05:27:14.023Z,13.37
2022-08-29T05:28:14.171Z,13.37
2022-08-29T05:29:13.953Z,13.42
2022-08-29T05:30:13.883Z,13.39
2022-08-29T05:31:13.988Z,13.37
2022-08-29T05:32:13.789Z,13.39
2022-08-29T05:33:13.745Z,13.36
2022-08-29T05:34:32.394Z,13.37
2022-08-29T05:35:13.655Z,13.43
2022-08-29T05:36:13.607Z,13.42
2022-08-29T05:37:13.563Z,13.50
2022-08-29T05:38:13.516Z,13.43
2022-08-29T05:39:13.917Z,13.54
2022-08-29T05:40:13.475Z,13.52
2022-08-29T05:41:13.379Z,13.50
2022-08-29T05:42:13.329Z,13.55
2022-08-29T05:43:13.285Z,13.57
2022-08-29T05:44:13.238Z,13.52
2022-08-29T05:45:13.191Z,13.54
2022-08-29T05:46:13.231Z,13.57
2022-08-29T05:47:13.106Z,13.58
2022-08-29T05:48:13.122Z,13.68
2022-08-29T05:49:13.006Z,13.68
2022-08-29T05:50:12.960Z,13.71
2022-08-29T05:51:12.918Z,13.67
2022-08-29T05:52:12.869Z,13.78
2022-08-29T05:53:12.826Z,13.71
2022-08-29T05:54:12.778Z,13.80
2022-08-29T05:55:12.733Z,13.79
2022-08-29T05:56:12.685Z,13.80
2022-08-29T05:57:18.198Z,13.83
2022-08-29T05:58:12.800Z,13.87
2022-08-29T05:59:12.650Z,13.93
2022-08-29T06:00:12.502Z,13.94
2022-08-29T06:01:12.459Z,13.94
2022-08-29T06:02:12.538Z,14.01
2022-08-29T06:03:12.457Z,14.05
2022-08-29T06:04:12.318Z,14.05
2022-08-29T06:05:12.272Z,14.12
2022-08-29T06:06:12.233Z,14.08
2022-08-29T06:07:12.385Z,14.11
2022-08-29T06:08:12.134Z,14.26
2022-08-29T06:09:12.087Z,14.30
2022-08-29T06:10:12.043Z,14.26
2022-08-29T06:11:12.000Z,14.34
2022-08-29T06:12:11.950Z,14.37
2022-08-29T06:13:11.904Z,14.43
2022-08-29T06:14:11.860Z,14.55
2022-08-29T06:15:11.817Z,14.51
2022-08-29T06:16:11.823Z,14.49
2022-08-29T06:17:11.722Z,14.56
2022-08-29T06:18:11.770Z,14.63
2022-08-29T06:19:11.633Z,14.73
2022-08-29T06:20:11.586Z,14.78
2022-08-29T06:21:11.539Z,14.77
2022-08-29T06:22:11.506Z,14.87
2022-08-29T06:23:11.448Z,14.81
2022-08-29T06:24:11.403Z,14.81
2022-08-29T06:25:37.463Z,14.94
2022-08-29T06:26:11.314Z,14.94
2022-08-29T06:27:11.270Z,15.02
2022-08-29T06:28:11.285Z,15.00
2022-08-29T06:29:11.174Z,15.11
2022-08-29T06:30:11.127Z,15.15
2022-08-29T06:31:11.178Z,15.17
2022-08-29T06:32:11.038Z,15.25
2022-08-29T06:33:10.991Z,15.23
2022-08-29T06:34:10.968Z,15.14
2022-08-29T06:35:10.905Z,15.30
2022-08-29T06:36:10.856Z,15.36
2022-08-29T06:37:10.811Z,15.43
2022-08-29T06:38:13.885Z,15.39
2022-08-29T06:39:10.720Z,15.44
2022-08-29T06:40:10.724Z,15.41
2022-08-29T06:41:10.630Z,15.47
2022-08-29T06:42:10.583Z,15.55
2022-08-29T06:43:10.540Z,15.50
2022-08-29T06:44:10.492Z,15.51
2022-08-29T06:45:10.449Z,15.54
2022-08-29T06:46:10.459Z,15.60
2022-08-29T06:47:10.358Z,15.65
2022-08-29T06:48:10.310Z,15.67
2022-08-29T06:49:10.268Z,15.65
2022-08-29T06:50:10.219Z,15.66
2022-08-29T06:51:10.182Z,15.69
2022-08-29T06:52:10.133Z,15.70
2022-08-29T06:53:27.511Z,15.78
2022-08-29T06:54:10.174Z,15.83
2022-08-29T06:55:09.997Z,15.90
2022-08-29T06:56:11.557Z,15.91
2022-08-29T06:57:09.906Z,15.91
2022-08-29T06:58:09.859Z,15.88
2022-08-29T06:59:09.814Z,16.02
2022-08-29T07:00:12.488Z,16.06
2022-08-29T07:01:09.800Z,16.06
2022-08-29T07:02:09.731Z,16.12
2022-08-29T07:03:09.876Z,16.21
2022-08-29T07:04:14.414Z,16.22
2022-08-29T07:05:09.547Z,16.24
2022-08-29T07:06:09.501Z,16.29
2022-08-29T07:07:09.455Z,16.36
2022-08-29T07:08:09.411Z,16.43
2022-08-29T07:09:09.364Z,16.47
2022-08-29T07:10:09.331Z,16.49
2022-08-29T07:11:09.278Z,16.59
2022-08-29T07:12:09.230Z,16.64
2022-08-29T07:13:09.185Z,16.80
2022-08-29T07:14:09.141Z,16.86
2022-08-29T07:15:09.097Z,16.79
2022-08-29T07:16:09.104Z,16.84
2022-08-29T07:17:09.004Z,16.86
2022-08-29T07:18:09.163Z,16.92
2022-08-29T07:19:08.918Z,17.01
2022-08-29T07:20:08.869Z,17.14
2022-08-29T07:21:08.825Z,17.14
2022-08-29T07:22:08.779Z,17.19
2022-08-29T07:23:08.949Z,17.27
2022-08-29T07:24:08.692Z,17.32
2022-08-29T07:25:08.654Z,17.37
2022-08-29T07:26:08.607Z,17.38
2022-08-29T07:27:08.577Z,17.47
2022-08-29T07:28:08.538Z,17.44
2022-08-29T07:29:08.480Z,17.56
2022-08-29T07:30:08.488Z,17.68
2022-08-29T07:31:08.497Z,17.68
2022-08-29T07:32:08.349Z,17.73
2022-08-29T07:33:08.381Z,17.78
2022-08-29T07:34:08.247Z,17.87
2022-08-29T07:35:11.564Z,17.93
2022-08-29T07:36:08.157Z,18.08
2022-08-29T07:37:09.696Z,18.00
2022-08-29T07:38:08.128Z,18.12
2022-08-29T07:39:08.026Z,18.23
2022-08-29T07:40:08.043Z,18.21
2022-08-29T07:41:07.941Z,18.33
2022-08-29T07:42:07.892Z,18.31
2022-08-29T07:43:07.898Z,18.42
2022-08-29T07:44:07.804Z,18.46
2022-08-29T07:45:07.762Z,18.43
2022-08-29T07:46:07.749Z,18.64
2022-08-29T07:47:07.675Z,18.68
2022-08-29T07:48:07.841Z,18.78
2022-08-29T07:49:07.585Z,18.79
2022-08-29T07:50:07.539Z,18.94
2022-08-29T07:51:10.500Z,18.91
2022-08-29T07:52:07.456Z,18.83
2022-08-29T07:53:07.410Z,18.97
2022-08-29T07:54:07.363Z,18.97
2022-08-29T07:55:07.326Z,19.00
2022-08-29T07:56:07.278Z,19.08
2022-08-29T07:57:07.240Z,19.16
2022-08-29T07:58:07.261Z,19.22
2022-08-29T07:59:07.153Z,19.30
2022-08-29T08:00:07.108Z,19.22
2022-08-29T08:01:07.115Z,19.27
2022-08-29T08:02:07.182Z,19.23
2022-08-29T08:03:06.970Z,19.22
2022-08-29T08:04:06.931Z,19.32
2022-08-29T08:05:07.066Z,19.30
2022-08-29T08:06:07.015Z,19.34
2022-08-29T08:07:06.794Z,19.29
2022-08-29T08:08:09.002Z,19.37
2022-08-29T08:09:06.707Z,19.29
2022-08-29T08:10:06.666Z,19.34
2022-08-29T08:11:06.621Z,19.30
2022-08-29T08:12:08.426Z,19.32
2022-08-29T08:13:06.533Z,19.24
2022-08-29T08:14:06.490Z,19.29
2022-08-29T08:15:06.449Z,19.32
2022-08-29T08:16:06.403Z,19.30
2022-08-29T08:17:06.405Z,19.35
2022-08-29T08:18:06.321Z,19.32
2022-08-29T08:19:06.270Z,19.38
2022-08-29T08:20:06.236Z,19.41
2022-08-29T08:21:06.187Z,19.39
2022-08-29T08:22:06.145Z,19.44
2022-08-29T08:23:09.078Z,19.45
2022-08-29T08:24:06.055Z,19.49
2022-08-29T08:25:06.094Z,19.49
2022-08-29T08:26:05.966Z,19.55
2022-08-29T08:27:05.924Z,19.57
2022-08-29T08:28:05.883Z,19.59
2022-08-29T08:29:05.839Z,19.57
2022-08-29T08:30:05.794Z,19.56
2022-08-29T08:56:10.526Z,20.34
2022-08-29T08:57:10.278Z,20.34
2022-08-29T08:58:10.233Z,20.34
2022-08-29T10:32:49.467Z,24.26
2022-08-29T10:33:49.424Z,24.26
2022-08-29T10:34:49.384Z,24.32
2022-08-29T10:35:54.174Z,24.38
2022-08-29T10:36:49.305Z,24.31
2022-08-29T10:37:49.258Z,24.38
2022-08-29T10:38:49.215Z,24.31
2022-08-29T10:39:49.174Z,24.41
2022-08-29T10:40:49.401Z,24.43
2022-08-29T10:41:50.527Z,24.44
2022-08-29T10:42:49.052Z,24.48
2022-08-29T10:43:49.009Z,24.58
2022-08-29T10:44:48.967Z,24.58
2022-08-29T10:45:48.991Z,24.61
2022-08-29T10:46:48.889Z,24.68
2022-08-29T10:47:48.845Z,24.66
2022-08-29T10:48:48.802Z,24.82
2022-08-29T10:49:48.759Z,24.81
2022-08-29T10:50:48.726Z,24.96
2022-08-29T10:51:48.676Z,24.92
2022-08-29T10:52:48.640Z,25.00
2022-08-29T10:53:48.601Z,24.99
2022-08-29T10:54:48.552Z,25.11
2022-08-29T10:55:48.511Z,25.09
2022-08-29T10:56:48.471Z,25.19
2022-08-29T10:57:48.429Z,25.21
2022-08-29T10:58:48.390Z,25.12
2022-08-29T10:59:48.345Z,25.19
2022-08-29T11:00:48.568Z,25.25
2022-08-29T11:01:48.263Z,25.24
2022-08-29T11:02:48.223Z,25.21
2022-08-29T11:03:48.242Z,25.40
2022-08-29T11:04:48.142Z,25.30
2022-08-29T11:05:48.101Z,25.43
2022-08-29T11:06:48.106Z,25.43
2022-08-29T11:07:48.018Z,25.41
2022-08-29T11:08:47.982Z,25.51
2022-08-29T11:09:47.934Z,25.44
2022-08-29T11:10:47.896Z,25.52
2022-08-29T11:11:47.852Z,25.51
2022-08-29T11:12:47.813Z,25.59
2022-08-29T11:13:47.769Z,25.68
2022-08-29T11:14:47.734Z,25.68
2022-08-29T11:15:48.419Z,25.68
2022-08-29T11:16:47.705Z,25.73
2022-08-29T11:17:47.605Z,25.77
2022-08-29T11:18:47.566Z,25.95
2022-08-29T11:19:47.524Z,25.93
2022-08-29T11:20:47.484Z,26.01
2022-08-29T11:21:47.442Z,26.06
2022-08-29T11:22:47.406Z,26.06
2022-08-29T11:23:47.361Z,26.07
2022-08-29T11:24:47.474Z,26.22
2022-08-29T11:25:47.278Z,26.24
2022-08-29T11:26:47.243Z,26.23
2022-08-29T11:27:47.204Z,26.27
2022-08-29T11:28:47.166Z,26.18
2022-08-29T11:29:47.116Z,26.13
2022-08-29T11:30:48.201Z,25.99
2022-08-29T11:31:47.115Z,26.08
2022-08-29T11:32:46.995Z,26.06
2022-08-29T11:33:46.950Z,26.01
2022-08-29T11:34:46.912Z,26.01
2022-08-29T11:35:46.870Z,26.01
2022-08-29T11:36:46.845Z,25.99
2022-08-29T11:37:46.791Z,26.06
2022-08-29T11:38:46.750Z,26.01
2022-08-29T11:39:46.709Z,26.04
2022-08-29T11:40:48.429Z,26.13
2022-08-29T11:41:46.813Z,26.13
2022-08-29T11:42:50.160Z,26.13
2022-08-29T11:43:46.543Z,26.16
2022-08-29T11:44:46.506Z,26.13
2022-08-29T11:45:46.462Z,26.06
2022-08-29T11:46:46.704Z,26.16
2022-08-29T11:47:46.381Z,26.26
2022-08-29T11:48:46.343Z,26.16
2022-08-29T11:49:46.300Z,26.34
2022-08-29T11:50:46.306Z,26.29
2022-08-29T11:51:46.218Z,26.41
2022-08-29T11:52:46.186Z,26.31
2022-08-29T11:53:46.136Z,26.33
2022-08-29T11:54:46.098Z,26.18
2022-08-29T11:55:46.057Z,26.30
2022-08-29T11:56:46.016Z,26.34
2022-08-29T11:57:45.976Z,26.45
2022-08-29T11:58:46.249Z,26.46
2022-08-29T11:59:45.892Z,26.42
2022-08-29T12:00:46.059Z,26.48
2022-08-29T12:01:45.881Z,26.55
2022-08-29T12:02:48.949Z,26.68
2022-08-29T12:03:45.731Z,26.81
2022-08-29T12:04:45.738Z,26.82
2022-08-29T12:05:45.650Z,26.96
2022-08-29T12:06:45.610Z,26.98
2022-08-29T12:07:45.574Z,27.07
2022-08-29T12:08:45.532Z,27.05
2022-08-29T12:09:45.484Z,27.16
2022-08-29T12:10:45.446Z,27.33
2022-08-29T12:11:45.406Z,27.43
2022-08-29T12:12:45.371Z,27.41
2022-08-29T12:13:45.326Z,27.60
2022-08-29T12:14:45.286Z,27.79
2022-08-29T12:15:45.246Z,27.85
2022-08-29T12:16:45.328Z,28.01
2022-08-29T12:18:01.537Z,28.13
2022-08-29T12:18:45.125Z,28.15
2022-08-29T12:19:45.097Z,28.28
2022-08-29T12:20:45.260Z,28.37
2022-08-29T12:21:45.005Z,28.38
2022-08-29T12:23:44.923Z,28.67
2022-08-29T12:24:50.912Z,28.86
2022-08-29T12:25:44.857Z,29.13
2022-08-29T12:26:44.807Z,29.25
2022-08-29T12:27:44.770Z,29.49
2022-08-29T12:28:44.728Z,29.76
2022-08-29T12:29:45.062Z,29.94
2022-08-29T12:30:44.659Z,30.26
2022-08-29T12:32:02.177Z,30.55
2022-08-29T12:32:44.590Z,30.80
2022-08-29T12:33:44.526Z,31.13
2022-08-29T12:34:44.488Z,31.30
2022-08-29T12:35:44.449Z,31.54
2022-08-29T12:36:51.962Z,31.95
2022-08-29T12:37:44.366Z,32.17
2022-08-29T12:38:44.331Z,32.42
2022-08-29T12:39:44.288Z,32.71
2022-08-29T12:40:44.392Z,32.86
2022-08-29T12:41:44.208Z,33.13
2022-08-29T12:42:44.177Z,33.26
2022-08-29T12:43:44.134Z,33.60
2022-08-29T12:44:44.153Z,33.89
2022-08-29T12:45:44.050Z,33.98
2022-08-29T12:46:44.053Z,34.40
2022-08-29T12:47:46.006Z,34.65
2022-08-29T12:48:43.938Z,34.94
2022-08-29T12:49:43.895Z,35.20
2022-08-29T12:50:43.863Z,35.44
2022-08-29T12:51:43.818Z,35.74
2022-08-29T12:52:43.780Z,35.76
2022-08-29T12:53:43.748Z,35.88
2022-08-29T12:54:46.039Z,36.06
2022-08-29T12:55:43.664Z,36.24
2022-08-29T12:56:43.634Z,36.32
2022-08-29T12:57:43.588Z,36.50
2022-08-29T12:58:43.551Z,36.51
2022-08-29T12:59:43.511Z,36.53
2022-08-29T13:00:43.890Z,36.63
2022-08-29T13:01:43.512Z,36.67
2022-08-29T13:02:43.476Z,36.78
2022-08-29T13:03:43.352Z,36.81
2022-08-29T13:04:43.313Z,36.75
2022-08-29T13:05:43.359Z,36.65
2022-08-29T13:06:43.236Z,36.48
2022-08-29T13:07:43.195Z,35.82
2022-08-29T13:08:43.160Z,35.05
2022-08-29T13:09:43.118Z,34.33
2022-08-29T13:10:43.086Z,33.66
2022-08-29T13:11:43.039Z,33.05
2022-08-29T13:12:43.007Z,32.54
2022-08-29T13:13:42.969Z,32.01
2022-08-29T13:14:42.925Z,31.67
2022-08-29T13:15:42.967Z,31.66
2022-08-29T13:16:42.871Z,31.48
2022-08-29T13:17:42.819Z,31.30
2022-08-29T13:19:42.728Z,31.02
2022-08-29T13:20:42.719Z,30.78
2022-08-29T13:21:42.855Z,30.62
2022-08-29T13:22:42.609Z,30.74
2022-08-29T13:23:42.570Z,31.08
2022-08-29T13:24:42.530Z,31.35
2022-08-29T13:25:42.501Z,31.51
2022-08-29T13:26:42.455Z,31.57
2022-08-29T13:27:42.415Z,31.35
2022-08-29T13:28:42.373Z,31.13
2022-08-29T13:29:42.462Z,30.86
2022-08-29T13:34:19.959Z,29.50
2022-08-29T13:35:19.917Z,29.28
2022-08-29T13:36:19.879Z,28.94
2022-08-29T13:37:20.040Z,28.89
2022-08-29T13:38:19.799Z,28.65
2022-08-29T13:39:19.758Z,28.65
2022-08-29T13:40:19.792Z,28.56
2022-08-29T13:41:19.686Z,28.33
2022-08-29T13:42:19.638Z,28.13
2022-08-29T13:43:19.802Z,27.97
2022-08-29T13:44:19.558Z,27.93
2022-08-29T13:45:19.516Z,27.95
2022-08-29T13:46:19.519Z,27.95
2022-08-29T13:47:19.439Z,27.91
2022-08-29T13:48:19.402Z,27.81
2022-08-29T13:49:19.356Z,27.66
2022-08-29T13:50:19.322Z,27.64
2022-08-29T13:51:19.277Z,27.60
2022-08-29T13:52:19.240Z,27.64
2022-08-29T13:53:19.197Z,27.53
2022-08-29T13:54:19.158Z,27.35
2022-08-29T13:55:19.114Z,27.22
2022-08-29T13:56:19.129Z,27.13
2022-08-29T13:57:19.032Z,27.04
2022-08-29T13:59:18.953Z,27.01
2022-08-29T14:00:18.911Z,26.96
2022-08-29T14:02:18.976Z,26.97
2022-08-29T14:03:18.954Z,27.01
2022-08-29T14:04:37.395Z,27.18
2022-08-29T14:05:18.709Z,27.43
2022-08-29T14:06:18.667Z,27.64
2022-08-29T14:07:18.630Z,27.79
2022-08-29T14:08:18.585Z,28.00
2022-08-29T14:09:18.546Z,27.94
2022-08-29T14:10:18.505Z,27.94
2022-08-29T14:11:18.467Z,27.91
2022-08-29T14:12:18.422Z,27.88
2022-08-29T14:13:18.385Z,27.83
2022-08-29T14:15:18.302Z,27.76
2022-08-29T14:16:18.296Z,27.78
2022-08-29T14:17:18.674Z,27.63
2022-08-29T14:18:18.181Z,27.60
2022-08-29T14:19:18.141Z,27.45
2022-08-29T14:20:18.102Z,27.34
2022-08-29T14:21:18.060Z,27.33
2022-08-29T14:22:18.018Z,27.20
2022-08-29T14:23:22.641Z,27.16
2022-08-29T14:24:17.943Z,27.10
2022-08-29T14:25:17.895Z,27.03
2022-08-29T14:26:17.857Z,26.93
2022-08-29T14:27:17.816Z,26.97
2022-08-29T14:28:17.776Z,26.83
2022-08-29T14:29:18.080Z,26.92
2022-08-29T14:30:17.691Z,26.97
2022-08-29T14:31:17.699Z,26.85
2022-08-29T14:32:17.614Z,26.89
2022-08-29T14:33:20.114Z,26.96
2022-08-29T14:34:17.532Z,26.89
2022-08-29T14:35:25.878Z,26.91
2022-08-29T14:36:17.450Z,26.89
2022-08-29T14:37:17.405Z,26.91
2022-08-29T14:38:17.634Z,26.85
2022-08-29T14:39:17.328Z,26.81
2022-08-29T14:40:21.736Z,26.74
2022-08-29T14:41:17.249Z,26.74
2022-08-29T14:42:17.207Z,26.68
2022-08-29T14:43:17.165Z,26.71
2022-08-29T14:44:20.145Z,26.66
2022-08-29T14:45:17.078Z,26.55
2022-08-29T14:46:17.123Z,26.52
2022-08-29T14:47:17.000Z,26.53
2022-08-29T14:48:17.178Z,26.56
2022-08-29T14:49:16.915Z,26.52
2022-08-29T14:50:16.882Z,26.49
2022-08-29T14:51:16.834Z,26.52
2022-08-29T14:52:16.800Z,26.44
2022-08-29T14:53:16.762Z,26.44
2022-08-29T14:54:16.713Z,26.44
2022-08-29T14:55:16.673Z,26.39
2022-08-29T14:56:44.290Z,26.41
2022-08-29T14:57:16.589Z,26.41
2022-08-29T14:58:16.756Z,26.46
2022-08-29T14:59:16.512Z,26.49
2022-08-29T15:00:16.469Z,26.49
2022-08-29T15:01:16.463Z,26.51